Time;durP1;ratioP1;P1;durP2;ratioP2;P2;SDS_P1;SDS_P2;PMS_P1;PMS_P2;Temp;Humidity;BMP_temperature;BMP_pressure;BME280_temperature;BME280_humidity;BME280_pressure;Samples;Min_cycle;Max_cycle;Signal;HPM_P1;HPM_P2
2022/04/19 19:41:56;;;;;;;11.18;3.50;;;;;;;12.13;61.06;102038.44;5104813;27;20708;-81
2022/04/19 19:44:23;;;;;;;16.63;4.22;;;;;;;13.03;57.67;102032.00;5084595;28;20044;-80
2022/04/19 19:46:50;;;;;;;19.40;5.18;;;;;;;13.60;55.70;102030.00;5086887;28;20537;-78
2022/04/19 19:49:16;;;;;;;10.63;3.40;;;;;;;13.77;55.08;102023.09;5085606;28;20040;-79
2022/04/19 19:51:42;;;;;;;12.90;3.75;;;;;;;14.44;52.73;102037.97;5083433;28;20055;-79
2022/04/19 19:54:08;;;;;;;9.98;2.83;;;;;;;14.85;51.23;102039.84;5089189;28;20081;-80
2022/04/19 19:56:34;;;;;;;9.60;2.70;;;;;;;15.29;49.45;102034.69;5087352;28;20512;-81
2022/04/19 19:58:59;;;;;;;11.27;3.28;;;;;;;15.51;48.73;102041.00;5087651;28;20604;-80
2022/04/19 20:01:25;;;;;;;8.85;3.33;;;;;;;15.73;48.05;102040.19;5087183;28;20068;-80
2022/04/19 20:03:51;;;;;;;14.65;4.45;;;;;;;15.32;48.94;102045.88;5087210;28;20122;-80
2022/04/19 20:06:17;;;;;;;9.60;3.13;;;;;;;15.54;48.32;102043.09;5088235;28;20028;-80
2022/04/19 20:08:46;;;;;;;6.40;3.60;;;;;;;15.50;48.40;102044.88;5086140;28;20035;-78
2022/04/19 20:11:12;;;;;;;11.20;3.88;;;;;;;15.66;47.69;102044.53;5086321;28;20016;-79
2022/04/19 20:13:42;;;;;;;7.20;3.13;;;;;;;14.95;49.22;102058.06;5085165;28;20020;-79
2022/04/19 20:16:09;;;;;;;9.50;2.95;;;;;;;14.79;49.97;102048.53;5084992;28;20025;-78
2022/04/19 20:18:34;;;;;;;9.75;2.97;;;;;;;14.73;50.03;102050.56;5086038;28;20073;-79
2022/04/19 20:21:00;;;;;;;9.65;3.25;;;;;;;14.94;49.24;102056.44;5085460;28;20393;-79
2022/04/19 20:23:26;;;;;;;14.43;3.83;;;;;;;14.85;49.06;102066.56;5085867;28;20024;-80
2022/04/19 20:25:51;;;;;;;15.18;4.60;;;;;;;14.78;49.20;102072.47;5088578;28;20032;-81
2022/04/19 20:28:17;;;;;;;7.82;4.07;;;;;;;15.01;48.68;102059.56;5086685;28;20394;-79
2022/04/19 20:30:42;;;;;;;9.68;3.70;;;;;;;15.39;47.30;102072.97;5085556;28;20036;-81
2022/04/19 20:33:09;;;;;;;11.13;4.03;;;;;;;15.17;47.87;102071.03;5087704;28;20066;-79
2022/04/19 20:35:37;;;;;;;12.77;3.90;;;;;;;15.37;46.98;102075.25;5086595;28;20016;-78
2022/04/19 20:38:04;;;;;;;7.28;2.58;;;;;;;15.76;45.42;102069.84;5086466;28;20031;-78
2022/04/19 20:40:30;;;;;;;8.75;3.03;;;;;;;15.33;45.72;102075.03;5083384;28;20556;-78
2022/04/19 20:42:57;;;;;;;7.47;2.80;;;;;;;15.21;46.07;102075.63;5085009;28;20482;-77
2022/04/19 20:45:23;;;;;;;20.95;4.60;;;;;;;15.09;45.93;102075.34;5085897;28;20035;-83
2022/04/19 20:50:35;;;;;;;12.38;4.55;;;;;;;15.28;45.48;102075.19;5084775;28;20040;-78
2022/04/19 20:53:03;;;;;;;5.97;3.05;;;;;;;15.21;46.04;102077.56;5072456;28;20052;-78
2022/04/19 20:55:29;;;;;;;8.02;3.70;;;;;;;14.75;46.56;102083.28;5071151;28;20024;-78
2022/04/19 20:57:55;;;;;;;10.85;4.22;;;;;;;14.67;46.81;102082.91;5073535;28;20028;-77
2022/04/19 21:00:23;;;;;;;7.93;3.42;;;;;;;14.46;46.99;102078.94;5073997;28;20029;-77
2022/04/19 21:02:49;;;;;;;6.15;3.42;;;;;;;14.60;46.68;102078.94;5073980;28;20491;-78
2022/04/19 21:05:15;;;;;;;7.57;2.95;;;;;;;14.70;46.43;102079.53;5074121;28;20020;-77
2022/04/19 21:07:41;;;;;;;19.38;4.43;;;;;;;14.73;46.38;102069.00;5073895;28;20028;-77
2022/04/19 21:10:12;;;;;;;9.35;3.58;;;;;;;14.96;45.69;102068.78;5073740;28;20417;-77
2022/04/19 21:12:39;;;;;;;13.70;4.65;;;;;;;15.13;45.54;102089.31;5073223;28;20020;-77
2022/04/19 21:15:05;;;;;;;8.88;4.00;;;;;;;15.60;44.41;102068.59;5073724;28;20091;-77
2022/04/19 21:17:31;;;;;;;8.20;3.38;;;;;;;15.61;43.84;102069.41;5071316;28;20520;-77
2022/04/19 21:19:57;;;;;;;8.70;3.67;;;;;;;15.51;44.31;102071.28;5072932;28;20028;-77
2022/04/19 21:22:23;;;;;;;13.02;4.50;;;;;;;15.46;44.45;102070.59;5072653;28;20032;-77
2022/04/19 21:24:49;;;;;;;10.02;4.53;;;;;;;15.50;44.27;102066.91;5071863;28;20024;-77
2022/04/19 21:27:14;;;;;;;9.55;4.63;;;;;;;15.65;43.75;102065.75;5070849;28;20027;-77
2022/04/19 21:29:40;;;;;;;9.48;4.18;;;;;;;15.34;44.56;102064.84;5073547;28;20024;-78
2022/04/19 21:32:06;;;;;;;6.90;3.70;;;;;;;15.33;44.65;102068.72;5073517;28;20398;-77
2022/04/19 21:34:35;;;;;;;9.35;4.22;;;;;;;15.25;44.61;102067.53;5073443;28;20020;-77
2022/04/19 21:37:02;;;;;;;11.50;4.25;;;;;;;15.33;44.40;102069.53;5073450;28;20055;-77
2022/04/19 21:39:29;;;;;;;12.77;4.78;;;;;;;15.46;44.09;102074.16;5073284;28;20020;-77
2022/04/19 21:41:55;;;;;;;10.50;4.18;;;;;;;15.53;43.58;102080.06;5073360;28;20043;-77
2022/04/19 21:44:21;;;;;;;10.65;5.22;;;;;;;15.88;42.90;102072.03;5073280;28;20025;-78
2022/04/19 21:46:50;;;;;;;11.60;4.20;;;;;;;16.12;42.15;102074.41;5073196;28;20039;-77
2022/04/19 21:49:16;;;;;;;15.98;5.10;;;;;;;15.70;42.90;102070.28;5073246;28;20832;-77
2022/04/19 21:51:42;;;;;;;8.02;4.00;;;;;;;15.42;43.58;102075.94;5072163;28;20103;-77
2022/04/19 21:54:07;;;;;;;8.50;4.53;;;;;;;15.34;43.68;102076.69;5071755;28;20103;-77
2022/04/19 21:56:33;;;;;;;9.63;4.47;;;;;;;15.76;42.77;102074.56;5071668;28;20107;-77
2022/04/19 21:58:59;;;;;;;8.57;4.25;;;;;;;15.76;42.48;102075.38;5071624;28;20029;-77
2022/04/19 22:01:25;;;;;;;6.05;3.60;;;;;;;15.73;42.15;102076.00;5071608;28;21367;-76
2022/04/19 22:03:52;;;;;;;10.20;4.85;;;;;;;15.55;42.31;102080.53;5069933;28;20387;-78
2022/04/19 22:06:19;;;;;;;9.90;5.43;;;;;;;15.43;42.46;102080.31;5071592;28;20016;-77
2022/04/19 22:08:45;;;;;;;11.07;5.10;;;;;;;15.47;42.57;102078.56;5071523;28;20025;-78
2022/04/19 22:11:12;;;;;;;13.80;6.45;;;;;;;15.55;42.19;102077.78;5070918;28;20012;-77
2022/04/19 22:13:39;;;;;;;14.50;5.93;;;;;;;15.54;42.15;102078.91;5071448;28;20020;-77
2022/04/19 22:16:05;;;;;;;8.65;5.68;;;;;;;15.51;42.29;102087.81;5071407;28;20024;-77
2022/04/19 22:18:31;;;;;;;10.65;5.85;;;;;;;15.56;42.34;102081.34;5069354;28;20020;-78
2022/04/19 22:20:57;;;;;;;12.50;6.75;;;;;;;15.57;41.82;102079.41;5071125;28;20032;-77
2022/04/19 22:23:27;;;;;;;12.05;5.38;;;;;;;15.61;41.74;102084.03;5071233;28;20025;-77
2022/04/19 22:25:53;;;;;;;15.75;6.72;;;;;;;15.60;41.79;102084.31;5071325;28;20020;-77
2022/04/19 22:28:19;;;;;;;10.80;6.00;;;;;;;15.48;42.07;102082.94;5071084;28;20025;-78
2022/04/19 22:30:45;;;;;;;13.30;6.28;;;;;;;15.20;42.30;102079.50;5071130;28;20031;-77
2022/04/19 22:33:12;;;;;;;10.55;5.70;;;;;;;15.16;42.58;102078.47;5068601;28;20515;-77
2022/04/19 22:35:38;;;;;;;10.65;6.95;;;;;;;15.37;42.11;102073.31;5069708;28;20107;-77
2022/04/19 22:38:04;;;;;;;15.68;7.00;;;;;;;15.43;41.96;102077.56;5071045;28;20482;-76
2022/04/19 22:40:30;;;;;;;13.13;5.90;;;;;;;15.46;41.68;102079.69;5070344;28;20048;-77
2022/04/19 22:42:56;;;;;;;15.68;6.90;;;;;;;15.31;41.88;102066.28;5070892;28;20486;-77
2022/04/19 22:45:22;;;;;;;14.02;8.27;;;;;;;15.32;41.94;102070.66;5071045;28;20023;-76
2022/04/19 22:47:48;;;;;;;13.32;7.20;;;;;;;15.06;42.41;102067.72;5069532;28;20055;-77
2022/04/19 22:50:13;;;;;;;14.10;7.40;;;;;;;15.27;42.08;102065.31;5070873;28;20483;-77
2022/04/19 22:52:39;;;;;;;11.55;7.18;;;;;;;15.26;41.91;102063.66;5070258;28;20024;-76
2022/04/19 22:55:06;;;;;;;11.05;7.22;;;;;;;15.04;42.19;102064.47;5070757;28;20036;-76
2022/04/19 22:57:31;;;;;;;15.07;8.13;;;;;;;15.02;42.19;102074.16;5070653;28;20032;-77
2022/04/19 22:59:57;;;;;;;11.93;7.80;;;;;;;15.00;42.18;102063.44;5070522;28;20021;-76
2022/04/19 23:02:23;;;;;;;11.07;7.40;;;;;;;15.18;41.85;102069.91;5070625;28;20056;-76
2022/04/19 23:04:52;;;;;;;14.48;8.00;;;;;;;15.20;41.82;102064.91;5070483;28;20027;-76
2022/04/19 23:07:18;;;;;;;11.32;6.82;;;;;;;15.29;41.46;102063.03;5070442;28;20378;-76
2022/04/19 23:09:46;;;;;;;11.95;5.07;;;;;;;15.35;41.20;102052.72;5069209;28;20115;-76
2022/04/19 23:12:12;;;;;;;11.73;5.43;;;;;;;15.22;40.89;102057.16;5069606;28;20431;-76
2022/04/19 23:14:38;;;;;;;10.07;5.93;;;;;;;15.16;40.67;102064.72;5070026;28;20090;-77
2022/04/19 23:17:04;;;;;;;11.20;6.20;;;;;;;15.03;40.65;102064.75;5070324;28;20091;-76
2022/04/19 23:19:30;;;;;;;8.15;4.85;;;;;;;15.25;39.98;102062.03;5069147;28;20025;-77
2022/04/19 23:21:56;;;;;;;13.73;8.35;;;;;;;15.02;40.44;102063.13;5070207;28;20119;-77
2022/04/19 23:24:22;;;;;;;10.73;6.45;;;;;;;14.87;40.74;102065.09;5069734;28;20111;-77
2022/04/19 23:29:32;;;;;;;12.63;6.30;;;;;;;15.08;40.46;102061.91;5070160;28;20398;-78
2022/04/19 23:31:58;;;;;;;12.93;5.63;;;;;;;14.83;41.18;102058.63;5072593;28;20024;-76
2022/04/19 23:34:23;;;;;;;10.32;6.28;;;;;;;14.65;41.69;102056.81;5072433;28;20035;-78
2022/04/19 23:36:49;;;;;;;10.48;6.28;;;;;;;14.70;41.46;102062.19;5071180;28;20033;-78
2022/04/19 23:39:14;;;;;;;10.18;5.97;;;;;;;14.68;41.47;102067.22;5072424;28;20033;-78
2022/04/19 23:41:40;;;;;;;11.10;6.63;;;;;;;14.57;41.46;102063.84;5072131;28;20099;-77
2022/04/19 23:44:07;;;;;;;10.57;6.22;;;;;;;14.59;41.74;102072.63;5072274;28;20034;-78
2022/04/19 23:46:32;;;;;;;11.52;6.38;;;;;;;14.55;41.51;102063.34;5072399;28;20025;-78
2022/04/19 23:48:58;;;;;;;9.93;5.90;;;;;;;14.31;41.90;102066.28;5071055;28;20074;-77
2022/04/19 23:51:24;;;;;;;12.23;7.45;;;;;;;14.40;41.70;102069.94;5072352;28;20546;-77
2022/04/19 23:53:49;;;;;;;10.38;5.65;;;;;;;14.46;41.62;102070.69;5072243;28;20086;-77
2022/04/19 23:56:15;;;;;;;11.15;6.35;;;;;;;14.48;41.51;102070.38;5072237;28;20460;-78
2022/04/19 23:58:41;;;;;;;9.75;5.88;;;;;;;14.51;41.42;102076.09;5071400;28;20598;-78
